Time;durP1;ratioP1;P1;durP2;ratioP2;P2;SDS_P1;SDS_P2;PMS_P1;PMS_P2;Temp;Humidity;BMP_temperature;BMP_pressure;BME280_temperature;BME280_humidity;BME280_pressure;Samples;Min_cycle;Max_cycle;Signal;HPM_P1;HPM_P2
2022/01/04 00:01:12;;;;;;;9.57;2.40;;;24.70;99.90;;;;;;5070146;28;20024;-68
2022/01/04 00:03:43;;;;;;;12.60;2.80;;;24.70;99.90;;;;;;5052542;28;20041;-68
2022/01/04 00:06:11;;;;;;;11.93;1.80;;;24.90;99.90;;;;;;5071751;28;20059;-69
2022/01/04 00:08:39;;;;;;;9.85;2.30;;;25.00;99.90;;;;;;5069689;28;20033;-66
2022/01/04 00:11:14;;;;;;;13.55;2.00;;;25.60;99.90;;;;;;5051991;28;20473;-68
2022/01/04 00:13:45;;;;;;;13.82;2.53;;;26.20;99.90;;;;;;5047248;28;20021;-69
2022/01/04 00:16:13;;;;;;;11.55;2.17;;;26.10;99.90;;;;;;5066228;28;20040;-68
2022/01/04 00:18:41;;;;;;;12.23;2.30;;;25.90;99.90;;;;;;5071475;28;20021;-69
2022/01/04 00:21:09;;;;;;;10.90;2.40;;;26.00;99.90;;;;;;5065898;28;20082;-68
2022/01/04 00:23:37;;;;;;;14.80;3.05;;;26.30;99.90;;;;;;5051683;28;20033;-69
2022/01/04 00:26:08;;;;;;;15.27;2.85;;;26.50;99.90;;;;;;5071714;28;20066;-68
2022/01/04 00:28:35;;;;;;;11.55;2.30;;;26.40;99.90;;;;;;5056298;28;20481;-68
2022/01/04 00:31:05;;;;;;;11.68;2.65;;;26.70;99.90;;;;;;5035020;28;20025;-68
2022/01/04 00:33:33;;;;;;;14.07;2.47;;;26.40;99.90;;;;;;5045717;28;20041;-68
2022/01/04 00:36:00;;;;;;;8.73;2.17;;;26.20;99.90;;;;;;5054336;28;20036;-69
2022/01/04 00:38:28;;;;;;;10.68;2.30;;;25.80;99.90;;;;;;5061832;28;20127;-68
2022/01/04 00:40:56;;;;;;;12.02;2.22;;;25.70;99.90;;;;;;5072368;28;20035;-68
2022/01/04 00:43:23;;;;;;;7.22;1.73;;;25.60;99.90;;;;;;5053711;28;20037;-70
2022/01/04 00:45:52;;;;;;;8.38;1.70;;;25.60;99.90;;;;;;5070908;28;20056;-70
2022/01/04 00:51:04;;;;;;;9.45;2.15;;;25.80;99.90;;;;;;5068265;28;20489;-68
2022/01/04 00:53:31;;;;;;;;;;;25.70;99.90;;;;;;5064630;28;20025;-72
2022/01/04 00:55:58;;;;;;;11.73;2.72;;;25.60;99.90;;;;;;5071639;28;19961;-72
2022/01/04 00:58:25;;;;;;;13.13;3.05;;;25.40;99.90;;;;;;5071577;28;20139;-72
2022/01/04 01:00:52;;;;;;;13.95;2.08;;;25.20;99.90;;;;;;5070431;28;20504;-69
2022/01/04 01:03:20;;;;;;;12.82;2.45;;;25.10;99.90;;;;;;5074552;28;20028;-69
2022/01/04 01:05:47;;;;;;;9.00;1.90;;;25.10;99.90;;;;;;5052519;28;20052;-69
2022/01/04 01:08:14;;;;;;;13.60;1.98;;;25.30;99.90;;;;;;5071083;28;20033;-69
2022/01/04 01:10:48;;;;;;;14.90;2.47;;;25.70;99.90;;;;;;5070982;28;20496;-69
2022/01/04 01:13:19;;;;;;;11.90;1.95;;;25.90;99.90;;;;;;5069708;28;20120;-68
2022/01/04 01:15:48;;;;;;;15.15;3.50;;;26.00;99.90;;;;;;5067791;28;20037;-68
2022/01/04 01:18:18;;;;;;;12.15;3.00;;;25.90;99.90;;;;;;5050850;28;20468;-68
2022/01/04 01:20:49;;;;;;;15.77;2.60;;;25.60;99.90;;;;;;5069650;28;20028;-69
2022/01/04 01:23:18;;;;;;;14.25;2.25;;;25.70;99.90;;;;;;5069112;28;20024;-68
2022/01/04 01:25:45;;;;;;;8.88;2.58;;;25.90;99.90;;;;;;5070376;28;20070;-66
2022/01/04 01:28:14;;;;;;;14.25;2.60;;;26.00;99.90;;;;;;5070769;28;20032;-64
2022/01/04 01:30:43;;;;;;;12.60;2.42;;;25.90;99.90;;;;;;5060368;28;20039;-64
2022/01/04 01:33:11;;;;;;;9.93;1.95;;;25.80;99.90;;;;;;5078195;28;20025;-64
2022/01/04 01:35:39;;;;;;;11.07;1.33;;;25.40;99.90;;;;;;5079122;28;20039;-64
2022/01/04 01:38:08;;;;;;;6.78;1.70;;;25.50;99.90;;;;;;5081724;28;20031;-64
2022/01/04 01:40:37;;;;;;;13.20;2.63;;;25.60;99.90;;;;;;5080331;28;20017;-64
2022/01/04 01:43:04;;;;;;;15.20;2.80;;;25.60;99.90;;;;;;5080453;28;20358;-64
2022/01/04 01:45:32;;;;;;;9.80;1.63;;;25.60;99.90;;;;;;5081365;28;20033;-64
2022/01/04 01:47:59;;;;;;;10.00;1.60;;;25.70;99.90;;;;;;5076031;28;20025;-64
2022/01/04 01:50:27;;;;;;;13.45;2.65;;;25.80;99.90;;;;;;5085190;28;20051;-64
2022/01/04 01:52:56;;;;;;;12.00;1.60;;;25.60;99.90;;;;;;5084234;28;20159;-64
2022/01/04 01:55:24;;;;;;;11.15;2.47;;;25.90;99.90;;;;;;5081845;28;20028;-64
2022/01/04 01:57:53;;;;;;;10.95;2.28;;;26.10;99.90;;;;;;5082818;28;20052;-64
2022/01/04 02:00:23;;;;;;;7.03;1.35;;;26.10;99.90;;;;;;5080766;28;20024;-64
2022/01/04 02:02:50;;;;;;;10.02;1.40;;;26.70;99.90;;;;;;5084217;28;20086;-64
2022/01/04 02:05:18;;;;;;;9.57;1.50;;;26.90;99.90;;;;;;5086159;28;20507;-66
2022/01/04 02:07:46;;;;;;;6.30;1.42;;;26.40;99.90;;;;;;5075380;28;20024;-64
2022/01/04 02:10:13;;;;;;;13.48;2.22;;;26.20;99.90;;;;;;5078712;28;20107;-64
2022/01/04 02:12:46;;;;;;;13.55;1.92;;;26.10;99.90;;;;;;5070681;28;20025;-64
2022/01/04 02:15:20;;;;;;;11.88;2.03;;;25.90;99.90;;;;;;5058615;28;20114;-64
2022/01/04 02:17:49;;;;;;;7.63;1.67;;;25.80;99.90;;;;;;5073482;28;20024;-64
2022/01/04 02:20:17;;;;;;;13.90;1.90;;;26.00;99.90;;;;;;5076771;28;20143;-64
2022/01/04 02:22:44;;;;;;;11.35;1.98;;;26.40;99.90;;;;;;5073537;28;20024;-63
2022/01/04 02:25:12;;;;;;;8.35;1.30;;;26.70;99.90;;;;;;5063669;28;20060;-64
2022/01/04 02:27:41;;;;;;;14.25;2.53;;;27.00;99.90;;;;;;5062929;28;20060;-64
2022/01/04 02:30:12;;;;;;;11.85;1.40;;;26.80;99.90;;;;;;5072011;28;20024;-64
2022/01/04 02:32:39;;;;;;;7.80;1.52;;;26.40;99.90;;;;;;5078470;28;20476;-64
2022/01/04 02:35:07;;;;;;;10.80;1.60;;;26.20;99.90;;;;;;5078366;28;20028;-63
2022/01/04 02:37:34;;;;;;;12.63;2.40;;;26.30;99.90;;;;;;5075984;28;20089;-64
2022/01/04 02:40:02;;;;;;;14.93;2.03;;;26.40;99.90;;;;;;5072045;28;20474;-64
2022/01/04 02:42:30;;;;;;;9.45;1.92;;;26.20;99.90;;;;;;5062704;28;20021;-64
2022/01/04 02:45:00;;;;;;;11.40;1.80;;;26.30;99.90;;;;;;5081128;28;20025;-63
2022/01/04 02:47:28;;;;;;;9.07;1.50;;;26.90;99.90;;;;;;5078667;28;20029;-63
2022/01/04 02:49:56;;;;;;;9.77;1.88;;;27.20;99.90;;;;;;5082263;28;20060;-65
2022/01/04 02:52:24;;;;;;;9.85;2.13;;;27.00;99.90;;;;;;5082304;28;20550;-67
2022/01/04 02:54:51;;;;;;;12.80;1.98;;;26.60;99.90;;;;;;5076925;28;20032;-68
2022/01/04 02:57:19;;;;;;;11.98;1.85;;;26.80;99.90;;;;;;5074846;28;20100;-68
2022/01/04 02:59:46;;;;;;;8.48;1.55;;;27.20;99.90;;;;;;5077024;28;20480;-67
2022/01/04 03:02:13;;;;;;;9.38;2.05;;;27.70;99.90;;;;;;5074539;28;20024;-67
2022/01/04 03:04:40;;;;;;;14.57;2.03;;;27.60;99.90;;;;;;5077403;28;20439;-66
2022/01/04 03:07:08;;;;;;;9.23;1.70;;;27.10;99.90;;;;;;5075645;28;20137;-66
2022/01/04 03:09:35;;;;;;;8.40;1.67;;;27.10;99.90;;;;;;5068001;28;20099;-68
2022/01/04 03:12:02;;;;;;;7.38;1.30;;;27.30;99.90;;;;;;5073793;28;20438;-67
2022/01/04 03:14:30;;;;;;;8.75;1.48;;;26.80;99.90;;;;;;5063954;28;20040;-67
2022/01/04 03:16:57;;;;;;;9.27;1.73;;;27.00;99.90;;;;;;5075847;28;20560;-67
2022/01/04 03:19:25;;;;;;;10.38;1.55;;;27.00;99.90;;;;;;5072696;28;20135;-67
2022/01/04 03:21:52;;;;;;;13.13;2.47;;;27.00;99.90;;;;;;5073819;28;20082;-67
2022/01/04 03:24:19;;;;;;;9.95;1.63;;;27.20;99.90;;;;;;5075479;28;20032;-67
2022/01/04 03:26:46;;;;;;;7.57;1.15;;;26.60;99.90;;;;;;5073050;28;20089;-67
2022/01/04 03:29:16;;;;;;;11.00;2.10;;;26.80;99.90;;;;;;5074119;28;20020;-67
2022/01/04 03:31:44;;;;;;;6.72;1.02;;;26.60;99.90;;;;;;5075666;28;20021;-67
2022/01/04 03:34:13;;;;;;;9.77;2.08;;;26.60;99.90;;;;;;5086819;28;20161;-67
2022/01/04 03:36:41;;;;;;;7.32;1.38;;;26.60;99.90;;;;;;5095000;28;20020;-68
2022/01/04 03:39:10;;;;;;;10.95;1.70;;;26.20;99.90;;;;;;5074120;28;20032;-67
2022/01/04 03:41:41;;;;;;;10.02;1.33;;;26.10;99.90;;;;;;5074905;28;20036;-67
2022/01/04 03:44:10;;;;;;;7.32;1.25;;;26.30;99.90;;;;;;5069169;28;20107;-68
2022/01/04 03:46:38;;;;;;;12.05;1.67;;;26.60;99.90;;;;;;5052219;28;20029;-68
2022/01/04 03:49:06;;;;;;;8.63;1.95;;;26.90;99.90;;;;;;5073231;28;20035;-68
2022/01/04 03:51:33;;;;;;;10.48;1.83;;;26.80;99.90;;;;;;5074106;28;20032;-68
2022/01/04 03:54:02;;;;;;;9.95;1.85;;;26.60;99.90;;;;;;5054748;28;20570;-68
2022/01/04 03:56:30;;;;;;;7.90;1.30;;;26.30;99.90;;;;;;5073166;28;20485;-68
2022/01/04 03:58:57;;;;;;;5.63;1.02;;;26.00;99.90;;;;;;5075611;28;20050;-68
2022/01/04 04:01:24;;;;;;;9.57;1.35;;;26.10;99.90;;;;;;5080632;28;20024;-68
2022/01/04 04:03:52;;;;;;;8.52;1.90;;;26.20;99.90;;;;;;5072285;28;20032;-68
2022/01/04 04:06:19;;;;;;;12.70;1.60;;;26.10;99.90;;;;;;5074785;28;20048;-68
2022/01/04 04:08:47;;;;;;;11.43;1.70;;;26.00;99.90;;;;;;5071372;28;20025;-67
2022/01/04 04:11:14;;;;;;;9.05;1.08;;;26.10;99.90;;;;;;5085811;28;20020;-68
2022/01/04 04:13:41;;;;;;;11.70;2.10;;;25.80;99.90;;;;;;5067771;28;20111;-68
2022/01/04 04:16:08;;;;;;;9.93;1.63;;;25.60;99.90;;;;;;5073956;28;20024;-68
2022/01/04 04:18:35;;;;;;;8.00;1.27;;;25.50;99.90;;;;;;5069469;28;20021;-68
2022/01/04 04:21:03;;;;;;;9.38;1.17;;;25.40;99.90;;;;;;5068643;28;20040;-68
2022/01/04 04:23:30;;;;;;;11.43;1.90;;;25.40;99.90;;;;;;5071411;28;20031;-67
2022/01/04 04:25:57;;;;;;;7.93;1.33;;;25.50;99.90;;;;;;5073117;28;20056;-67
2022/01/04 04:28:25;;;;;;;11.10;1.80;;;25.50;99.90;;;;;;5069929;28;20033;-68
2022/01/04 04:30:52;;;;;;;14.05;1.42;;;25.40;99.90;;;;;;5068537;28;20024;-67
2022/01/04 04:33:19;;;;;;;8.52;1.33;;;25.30;99.90;;;;;;5070752;28;20024;-67
2022/01/04 04:35:47;;;;;;;8.48;1.85;;;25.30;99.90;;;;;;5073075;28;20034;-68
2022/01/04 04:38:14;;;;;;;9.70;1.35;;;25.30;99.90;;;;;;5067654;28;20032;-68
2022/01/04 04:40:41;;;;;;;8.95;1.35;;;25.40;99.90;;;;;;5059851;28;20020;-67
2022/01/04 04:43:08;;;;;;;9.10;1.80;;;25.50;99.90;;;;;;5073970;28;20086;-67
2022/01/04 04:45:36;;;;;;;9.65;1.88;;;25.30;99.90;;;;;;5053102;28;20489;-67
2022/01/04 04:48:03;;;;;;;16.15;1.73;;;25.40;99.90;;;;;;5070241;28;20074;-67
2022/01/04 04:50:31;;;;;;;7.53;1.42;;;25.60;99.90;;;;;;5060296;28;20062;-67
2022/01/04 04:52:58;;;;;;;12.85;1.92;;;25.50;99.90;;;;;;5073203;28;20388;-67
2022/01/04 04:55:26;;;;;;;9.40;1.55;;;25.30;99.90;;;;;;5074282;28;20024;-68
2022/01/04 04:57:53;;;;;;;7.97;1.52;;;25.30;99.90;;;;;;5071842;28;20048;-67
2022/01/04 05:00:20;;;;;;;11.40;1.40;;;25.30;99.90;;;;;;5070114;28;20024;-67
2022/01/04 05:02:48;;;;;;;7.13;1.10;;;25.50;99.90;;;;;;5049999;28;20050;-68
2022/01/04 05:05:15;;;;;;;5.28;1.20;;;25.60;99.90;;;;;;5064768;28;20029;-68
2022/01/04 05:07:42;;;;;;;8.13;1.17;;;25.80;99.90;;;;;;5067737;28;20149;-68
2022/01/04 05:10:10;;;;;;;8.45;1.52;;;25.80;99.90;;;;;;5067675;28;20121;-67
2022/01/04 05:12:38;;;;;;;6.35;1.00;;;25.80;99.90;;;;;;5065379;28;20025;-67
2022/01/04 05:15:05;;;;;;;7.53;1.23;;;25.80;99.90;;;;;;5070089;28;20031;-67
2022/01/04 05:17:33;;;;;;;12.10;1.17;;;25.60;99.90;;;;;;5073515;28;20102;-66
2022/01/04 05:20:00;;;;;;;9.80;1.45;;;25.60;99.90;;;;;;5069537;28;20163;-67
2022/01/04 05:22:27;;;;;;;8.82;1.73;;;25.60;99.90;;;;;;5069436;28;20050;-67
2022/01/04 05:24:55;;;;;;;6.70;2.03;;;25.40;99.90;;;;;;5067302;28;20060;-68
2022/01/04 05:27:22;;;;;;;9.32;1.42;;;25.40;99.90;;;;;;5052873;28;20024;-67
2022/01/04 05:29:50;;;;;;;8.30;1.27;;;25.20;99.90;;;;;;5065342;28;20033;-66
2022/01/04 05:32:17;;;;;;;8.00;1.40;;;25.10;99.90;;;;;;5071660;28;20493;-67
2022/01/04 05:34:44;;;;;;;6.07;0.93;;;25.20;99.90;;;;;;5070732;28;20036;-67
2022/01/04 05:37:12;;;;;;;11.07;1.38;;;25.10;99.90;;;;;;5066204;28;20560;-67
2022/01/04 05:39:39;;;;;;;7.53;1.30;;;25.10;99.90;;;;;;5073462;28;20559;-67
2022/01/04 05:42:08;;;;;;;9.82;1.70;;;25.20;99.90;;;;;;5072194;28;20016;-67
2022/01/04 05:44:37;;;;;;;8.98;1.55;;;25.40;99.90;;;;;;5070711;28;20041;-68
2022/01/04 05:47:05;;;;;;;10.82;1.77;;;25.60;99.90;;;;;;5046576;28;20037;-68
2022/01/04 05:49:33;;;;;;;9.98;1.02;;;25.70;99.90;;;;;;5072325;28;20029;-69
2022/01/04 05:52:00;;;;;;;14.02;1.50;;;25.90;99.90;;;;;;5043986;28;20047;-68
2022/01/04 05:54:28;;;;;;;11.85;1.40;;;25.90;99.90;;;;;;5072375;28;20035;-69
2022/01/04 05:56:55;;;;;;;7.72;1.45;;;26.00;99.90;;;;;;5071497;28;20025;-68
2022/01/04 05:59:22;;;;;;;11.75;1.63;;;26.00;99.90;;;;;;5064436;28;20108;-69
2022/01/04 06:01:50;;;;;;;10.05;2.20;;;25.90;99.90;;;;;;5074082;28;20047;-68
2022/01/04 06:04:17;;;;;;;11.45;1.33;;;26.10;99.90;;;;;;5060515;28;20040;-70
2022/01/04 06:06:44;;;;;;;8.82;3.50;;;25.80;99.90;;;;;;5075960;28;20169;-66
2022/01/04 06:09:20;;;;;;;22.10;10.88;;;26.10;99.90;;;;;;5068094;28;20385;-66
2022/01/04 06:17:00;;;;;;;11.23;2.28;;;26.10;99.90;;;;;;5063965;28;20039;-65
2022/01/04 06:19:27;;;;;;;9.85;1.83;;;26.10;99.90;;;;;;5067008;28;20428;-65
2022/01/04 06:21:55;;;;;;;8.63;1.45;;;26.10;99.90;;;;;;5071211;28;20104;-65
2022/01/04 06:24:22;;;;;;;9.45;2.65;;;26.10;99.90;;;;;;5068092;28;20603;-65
2022/01/04 06:26:49;;;;;;;6.57;2.90;;;25.80;99.90;;;;;;5065249;28;20520;-65
2022/01/04 06:29:19;;;;;;;12.35;2.22;;;26.00;99.90;;;;;;5074744;28;20059;-65
2022/01/04 06:31:47;;;;;;;8.30;1.50;;;26.10;99.90;;;;;;5065658;28;20557;-64
2022/01/04 06:34:14;;;;;;;8.25;1.45;;;26.10;99.90;;;;;;5069209;28;20025;-65
2022/01/04 06:36:42;;;;;;;11.43;1.10;;;26.30;99.90;;;;;;5070013;28;20396;-65
2022/01/04 06:39:09;;;;;;;5.85;0.95;;;26.30;99.90;;;;;;5065142;28;20032;-65
2022/01/04 06:41:36;;;;;;;6.30;1.00;;;26.70;99.90;;;;;;5074027;28;20047;-65
2022/01/04 06:44:03;;;;;;;7.05;1.35;;;26.40;99.90;;;;;;5056964;28;20029;-65
2022/01/04 06:46:31;;;;;;;8.93;1.38;;;27.10;99.90;;;;;;5069236;28;20036;-65
2022/01/04 06:48:59;;;;;;;5.90;0.98;;;27.40;99.90;;;;;;5062156;28;20040;-65
2022/01/04 06:51:26;;;;;;;7.82;1.05;;;27.40;99.90;;;;;;5073223;28;20024;-65
2022/01/04 06:53:53;;;;;;;7.32;1.48;;;27.50;99.90;;;;;;5074116;28;20104;-65
2022/01/04 06:56:20;;;;;;;9.35;0.98;;;27.40;99.90;;;;;;5064543;28;20197;-65
2022/01/04 06:58:48;;;;;;;9.48;1.25;;;27.10;99.90;;;;;;5072059;28;20070;-65
2022/01/04 07:01:15;;;;;;;8.40;1.77;;;26.50;99.90;;;;;;5061636;28;20036;-65
2022/01/04 07:03:42;;;;;;;10.02;1.40;;;26.60;99.90;;;;;;5068934;28;20032;-65
2022/01/04 07:06:10;;;;;;;7.57;0.95;;;26.30;99.90;;;;;;5066165;28;20079;-65
2022/01/04 07:08:37;;;;;;;7.57;1.05;;;25.60;99.90;;;;;;5070993;28;20431;-65
2022/01/04 07:11:05;;;;;;;8.52;1.13;;;25.50;99.90;;;;;;5061317;28;20103;-65
2022/01/04 07:13:32;;;;;;;4.50;0.95;;;25.50;99.90;;;;;;5061421;28;20029;-65
2022/01/04 07:15:59;;;;;;;8.07;0.95;;;26.10;99.90;;;;;;5066146;28;20123;-65
2022/01/04 07:18:27;;;;;;;3.88;0.63;;;25.60;99.90;;;;;;5069330;28;20435;-65
2022/01/04 07:20:54;;;;;;;10.02;1.27;;;25.50;99.90;;;;;;5071962;28;20020;-65
2022/01/04 07:23:22;;;;;;;8.50;1.17;;;25.30;99.90;;;;;;5067642;28;20500;-65
2022/01/04 07:25:50;;;;;;;7.18;1.30;;;25.50;99.90;;;;;;5072759;28;20515;-66
2022/01/04 07:28:17;;;;;;;3.85;0.60;;;26.20;99.90;;;;;;5065147;28;20591;-65
2022/01/04 07:30:44;;;;;;;7.57;1.40;;;26.30;99.90;;;;;;5073253;28;20473;-65
2022/01/04 07:33:13;;;;;;;5.32;0.90;;;25.60;99.90;;;;;;5072250;28;20070;-64
2022/01/04 07:35:41;;;;;;;6.45;1.00;;;25.30;99.90;;;;;;5048751;28;20029;-65
2022/01/04 07:38:08;;;;;;;8.65;0.98;;;25.20;99.90;;;;;;5060033;28;20082;-65
2022/01/04 07:40:35;;;;;;;5.40;0.95;;;25.00;99.90;;;;;;5066992;28;20032;-65
2022/01/04 07:43:03;;;;;;;6.28;0.90;;;24.90;99.90;;;;;;5062635;28;20021;-65
2022/01/04 07:45:32;;;;;;;6.95;1.55;;;24.90;99.90;;;;;;5070956;28;20075;-65
2022/01/04 07:48:00;;;;;;;6.70;1.00;;;24.90;99.90;;;;;;5065931;28;20031;-64
2022/01/04 07:50:28;;;;;;;7.00;1.00;;;24.90;99.90;;;;;;5070375;28;20052;-65
2022/01/04 07:52:56;;;;;;;7.10;1.23;;;24.80;99.90;;;;;;5070619;28;20024;-65
2022/01/04 07:55:23;;;;;;;5.85;0.82;;;24.90;99.90;;;;;;5066844;28;20043;-65
2022/01/04 07:57:50;;;;;;;5.03;1.00;;;24.90;99.90;;;;;;5070524;28;20025;-65
2022/01/04 08:00:18;;;;;;;5.68;1.02;;;24.70;99.90;;;;;;5072244;28;20033;-65
2022/01/04 08:02:48;;;;;;;7.13;1.65;;;24.60;99.90;;;;;;5066661;28;20047;-65
2022/01/04 08:05:15;;;;;;;8.57;1.02;;;24.50;99.90;;;;;;5064376;28;20031;-65
2022/01/04 08:07:42;;;;;;;4.05;0.70;;;24.50;99.90;;;;;;5069541;28;20066;-65
2022/01/04 08:10:11;;;;;;;11.55;1.80;;;24.50;99.90;;;;;;5071420;28;20093;-65
2022/01/04 08:12:39;;;;;;;8.13;1.40;;;24.30;99.90;;;;;;5068677;28;20040;-65
2022/01/04 08:15:07;;;;;;;7.03;1.45;;;24.20;99.90;;;;;;5068013;28;20028;-66
2022/01/04 08:17:36;;;;;;;10.02;1.45;;;24.20;99.90;;;;;;5064767;28;20537;-63
2022/01/04 08:20:06;;;;;;;9.07;1.55;;;24.10;99.90;;;;;;5069860;28;20024;-62
2022/01/04 08:22:34;;;;;;;6.43;1.58;;;24.00;99.90;;;;;;5065470;28;20096;-63
2022/01/04 08:25:08;;;;;;;6.35;0.80;;;24.00;99.90;;;;;;5070429;28;20459;-63
2022/01/04 08:27:35;;;;;;;;;;;24.10;99.90;;;;;;5056659;28;20029;-62
2022/01/04 08:30:04;;;;;;;5.20;1.10;;;24.10;99.90;;;;;;5070099;28;19908;-63
2022/01/04 08:32:32;;;;;;;6.65;1.10;;;24.10;99.90;;;;;;5068313;28;20031;-63
2022/01/04 08:34:59;;;;;;;4.80;0.73;;;24.10;99.90;;;;;;5070564;28;20036;-63
2022/01/04 08:37:27;;;;;;;6.20;0.98;;;24.10;99.90;;;;;;5066393;28;20051;-63
2022/01/04 08:39:54;;;;;;;4.97;0.98;;;24.00;99.90;;;;;;5069999;28;20060;-62
2022/01/04 08:42:25;;;;;;;9.18;1.00;;;23.80;99.90;;;;;;5065857;28;20037;-63
2022/01/04 08:44:55;;;;;;;7.82;1.67;;;23.70;99.90;;;;;;5070719;28;20029;-63
2022/01/04 08:47:23;;;;;;;9.73;1.20;;;23.70;99.90;;;;;;5068144;28;20032;-63
2022/01/04 08:49:50;;;;;;;8.10;1.48;;;23.70;99.90;;;;;;5060521;28;20036;-63
2022/01/04 08:52:18;;;;;;;5.00;1.00;;;23.70;99.90;;;;;;5066233;28;20473;-63
2022/01/04 08:54:46;;;;;;;13.02;1.33;;;23.60;99.90;;;;;;5065024;28;20024;-63
2022/01/04 08:57:13;;;;;;;8.00;1.13;;;23.50;99.90;;;;;;5065472;28;20020;-63
2022/01/04 08:59:41;;;;;;;12.52;1.40;;;23.50;99.90;;;;;;5056151;28;20063;-63
2022/01/04 09:02:08;;;;;;;10.55;0.93;;;23.40;99.90;;;;;;5069443;28;20021;-63
2022/01/04 09:04:35;;;;;;;13.23;1.42;;;23.50;99.90;;;;;;5069668;28;20060;-63
2022/01/04 09:07:03;;;;;;;10.93;1.63;;;23.50;99.90;;;;;;5069936;28;20048;-63
2022/01/04 09:09:30;;;;;;;9.95;1.27;;;23.40;99.90;;;;;;5071013;28;20535;-63
2022/01/04 09:11:57;;;;;;;11.25;1.83;;;23.30;99.90;;;;;;5059568;28;20025;-63
2022/01/04 09:14:29;;;;;;;11.27;1.10;;;23.30;99.90;;;;;;5071975;28;20039;-63
2022/01/04 09:19:42;;;;;;;11.18;1.58;;;23.30;99.90;;;;;;5066192;28;20483;-64
2022/01/04 09:22:10;;;;;;;7.68;0.93;;;23.30;99.90;;;;;;5070047;28;20042;-64
2022/01/04 09:24:37;;;;;;;8.18;1.67;;;23.30;99.90;;;;;;5071428;28;20036;-63
2022/01/04 09:27:06;;;;;;;6.13;0.93;;;23.30;99.90;;;;;;5072624;28;20020;-63
2022/01/04 09:29:33;;;;;;;6.47;1.17;;;23.20;99.90;;;;;;5067309;28;20036;-63
2022/01/04 09:32:02;;;;;;;5.90;0.93;;;23.30;99.90;;;;;;5072960;28;20097;-63
2022/01/04 09:34:29;;;;;;;12.25;1.30;;;23.30;99.90;;;;;;5070369;28;20032;-63
2022/01/04 09:36:57;;;;;;;10.02;1.40;;;23.30;99.90;;;;;;5071695;28;20510;-63
2022/01/04 09:39:25;;;;;;;8.20;1.08;;;23.30;99.90;;;;;;5069226;28;20017;-63
2022/01/04 09:41:55;;;;;;;7.20;1.45;;;23.30;99.90;;;;;;5068290;28;20029;-63
2022/01/04 09:44:25;;;;;;;6.45;1.20;;;23.30;99.90;;;;;;5070664;28;20024;-63
2022/01/04 09:46:52;;;;;;;7.43;1.55;;;23.30;99.90;;;;;;5070454;28;20420;-63
2022/01/04 09:49:20;;;;;;;7.20;1.00;;;23.30;99.90;;;;;;5070906;28;20506;-63
2022/01/04 09:51:49;;;;;;;8.25;1.42;;;23.30;99.90;;;;;;5062872;28;20032;-63
2022/01/04 09:54:25;;;;;;;8.07;1.75;;;23.40;99.90;;;;;;5052121;28;20059;-63
2022/01/04 09:56:54;;;;;;;7.15;0.90;;;23.30;99.90;;;;;;5038984;28;20121;-63
2022/01/04 09:59:21;;;;;;;7.18;1.20;;;23.40;99.90;;;;;;5071443;28;20032;-63
2022/01/04 10:01:59;;;;;;;6.28;1.10;;;23.40;99.90;;;;;;5071717;28;20098;-63
2022/01/04 10:04:27;;;;;;;11.35;1.55;;;23.40;99.90;;;;;;5069360;28;20036;-63
2022/01/04 10:07:12;;;;;;;10.52;1.85;;;23.40;99.90;;;;;;5053506;28;20037;-63
2022/01/04 10:09:44;;;;;;;15.82;2.25;;;23.40;99.90;;;;;;5067368;28;20025;-63
2022/01/04 10:12:13;;;;;;;7.20;0.85;;;23.30;99.90;;;;;;5070697;28;20505;-63
2022/01/04 10:14:43;;;;;;;4.40;1.20;;;23.30;99.90;;;;;;5057277;28;20545;-63
2022/01/04 10:17:17;;;;;;;11.02;1.75;;;23.30;99.90;;;;;;5070894;28;20040;-63
2022/01/04 10:19:48;;;;;;;7.72;1.45;;;23.30;99.90;;;;;;5070730;28;20047;-63
2022/01/04 10:22:24;;;;;;;11.82;1.90;;;23.20;99.90;;;;;;5068976;28;20024;-63
2022/01/04 10:25:03;;;;;;;9.88;1.50;;;23.20;99.90;;;;;;5066037;28;20626;-64
2022/01/04 10:27:32;;;;;;;9.63;1.13;;;23.10;99.90;;;;;;5066290;28;20021;-63
2022/01/04 10:30:21;;;;;;;6.75;1.50;;;23.20;99.90;;;;;;5063869;28;20040;-64
2022/01/04 10:33:21;;;;;;;10.15;1.35;;;23.10;99.90;;;;;;5071426;28;20048;-64
2022/01/04 10:35:56;;;;;;;4.97;1.00;;;23.20;99.90;;;;;;5052212;28;20031;-65
2022/01/04 10:38:33;;;;;;;9.38;1.58;;;23.20;99.90;;;;;;5067549;28;20070;-64
2022/01/04 10:41:02;;;;;;;8.48;1.40;;;23.10;99.90;;;;;;5066569;28;20013;-64
2022/01/04 10:43:33;;;;;;;9.57;1.58;;;23.20;99.90;;;;;;5056993;28;20086;-65
2022/01/04 10:46:01;;;;;;;9.13;1.67;;;23.10;99.90;;;;;;5053225;28;20131;-64
2022/01/04 10:48:41;;;;;;;8.35;1.30;;;23.10;99.90;;;;;;5073347;28;20021;-65
2022/01/04 10:51:15;;;;;;;9.25;1.15;;;23.00;99.90;;;;;;5054095;28;20423;-65
2022/01/04 10:53:46;;;;;;;6.22;0.85;;;23.00;99.90;;;;;;5074449;28;20557;-63
2022/01/04 10:56:15;;;;;;;4.63;1.02;;;23.00;99.90;;;;;;5073681;28;20024;-64
2022/01/04 10:58:46;;;;;;;9.10;1.55;;;23.00;99.90;;;;;;5072971;28;20491;-64
2022/01/04 11:01:16;;;;;;;7.38;1.50;;;23.00;99.90;;;;;;5073640;28;20028;-63
2022/01/04 11:03:45;;;;;;;7.68;1.00;;;23.00;99.90;;;;;;5070695;28;20032;-63
2022/01/04 11:06:20;;;;;;;7.88;1.25;;;23.10;99.90;;;;;;5069278;28;20044;-64
2022/01/04 11:08:47;;;;;;;7.90;1.15;;;23.00;99.90;;;;;;5072044;28;20392;-63
2022/01/04 11:11:15;;;;;;;9.82;1.23;;;23.00;99.90;;;;;;5070877;28;20025;-63
2022/01/04 11:13:42;;;;;;;8.48;1.15;;;23.00;99.90;;;;;;5071143;28;20024;-63
2022/01/04 11:16:10;;;;;;;13.70;1.98;;;23.00;99.90;;;;;;5053128;28;20051;-63
2022/01/04 11:18:42;;;;;;;6.10;0.90;;;23.00;99.90;;;;;;5066741;28;20023;-64
2022/01/04 11:21:15;;;;;;;9.25;1.23;;;23.00;99.90;;;;;;5071131;28;20021;-64
2022/01/04 11:23:43;;;;;;;8.82;1.17;;;23.00;99.90;;;;;;5049773;28;20020;-64
2022/01/04 11:26:12;;;;;;;8.68;1.00;;;23.00;99.90;;;;;;5071370;28;20070;-64
2022/01/04 11:28:45;;;;;;;6.55;0.90;;;23.10;99.90;;;;;;5068661;28;20056;-63
2022/01/04 11:31:34;;;;;;;8.07;1.10;;;23.10;99.90;;;;;;5071439;28;20013;-63
2022/01/04 11:34:10;;;;;;;12.15;0.98;;;23.10;99.90;;;;;;5071123;28;20070;-63
2022/01/04 11:36:49;;;;;;;9.73;1.70;;;23.10;99.90;;;;;;5069064;28;20035;-64
2022/01/04 11:39:34;;;;;;;11.55;1.40;;;23.10;99.90;;;;;;5071948;28;20359;-64
2022/01/04 11:42:10;;;;;;;7.45;1.13;;;23.10;99.90;;;;;;5071780;28;20032;-64
2022/01/04 11:44:46;;;;;;;12.32;1.30;;;23.10;99.90;;;;;;5071174;28;20028;-63
2022/01/04 11:47:25;;;;;;;11.50;1.80;;;23.00;99.90;;;;;;5048732;28;20123;-63
2022/01/04 11:50:16;;;;;;;11.68;2.15;;;23.00;99.90;;;;;;5072021;28;20416;-64
2022/01/04 11:52:46;;;;;;;8.55;1.65;;;23.00;99.90;;;;;;5072729;28;20060;-64
2022/01/04 11:55:26;;;;;;;9.27;1.45;;;23.00;99.90;;;;;;5072750;28;20025;-64
2022/01/04 11:57:56;;;;;;;8.70;1.15;;;22.90;99.90;;;;;;5069745;28;20697;-64
2022/01/04 12:00:37;;;;;;;9.80;1.50;;;22.90;99.90;;;;;;5071888;28;20024;-64
2022/01/04 12:03:13;;;;;;;8.43;1.10;;;22.90;99.90;;;;;;5062551;28;20028;-64
2022/01/04 12:06:02;;;;;;;7.35;1.08;;;22.90;99.90;;;;;;5066214;28;20114;-64
2022/01/04 12:08:36;;;;;;;6.68;1.20;;;22.90;99.90;;;;;;5069405;28;20461;-64
2022/01/04 12:11:16;;;;;;;8.25;1.10;;;22.90;99.90;;;;;;5069731;28;20047;-64
2022/01/04 12:13:52;;;;;;;12.68;1.58;;;22.90;99.90;;;;;;5070412;28;20035;-64
2022/01/04 12:16:43;;;;;;;6.10;1.25;;;22.90;99.90;;;;;;5067877;28;20381;-64
2022/01/04 12:19:12;;;;;;;5.63;1.30;;;22.90;99.90;;;;;;5070341;28;20495;-64
2022/01/04 12:21:42;;;;;;;10.20;1.30;;;22.90;99.90;;;;;;5067240;28;20061;-64
2022/01/04 12:24:11;;;;;;;5.15;1.13;;;22.90;99.90;;;;;;5057338;28;20094;-64
2022/01/04 12:26:39;;;;;;;8.38;2.13;;;22.90;99.90;;;;;;5067827;28;20111;-64
2022/01/04 12:29:10;;;;;;;4.40;0.90;;;22.90;99.90;;;;;;5071131;28;20029;-64
2022/01/04 12:31:54;;;;;;;8.90;1.00;;;22.90;99.90;;;;;;5070133;28;20036;-64
2022/01/04 12:34:29;;;;;;;5.80;1.00;;;22.90;99.90;;;;;;5070328;28;20096;-64
2022/01/04 12:36:57;;;;;;;14.85;1.73;;;22.90;99.90;;;;;;5068673;28;20027;-64
2022/01/04 12:39:35;;;;;;;6.38;1.15;;;22.90;99.90;;;;;;5070248;28;20031;-64
2022/01/04 12:42:03;;;;;;;9.15;1.13;;;22.80;99.90;;;;;;5063369;28;20031;-64
2022/01/04 12:44:31;;;;;;;9.75;1.27;;;22.90;99.90;;;;;;5064177;28;20045;-64
2022/01/04 12:47:00;;;;;;;10.25;1.42;;;22.90;99.90;;;;;;5056375;28;20115;-65
2022/01/04 12:49:32;;;;;;;6.32;1.50;;;22.90;99.90;;;;;;5067874;28;20103;-64
2022/01/04 12:52:08;;;;;;;10.38;1.58;;;22.90;99.90;;;;;;5066478;28;20056;-64
2022/01/04 12:54:40;;;;;;;6.90;1.48;;;22.90;99.90;;;;;;5070497;28;20077;-64
2022/01/04 12:57:11;;;;;;;7.55;1.13;;;22.90;99.90;;;;;;5071292;28;20476;-64
2022/01/04 12:59:48;;;;;;;14.57;2.15;;;22.80;99.90;;;;;;5070957;28;20024;-64
2022/01/04 13:02:15;;;;;;;13.90;2.20;;;22.80;99.90;;;;;;5068644;28;20016;-64
2022/01/04 13:04:45;;;;;;;14.15;1.98;;;22.80;99.90;;;;;;5046770;28;20029;-64